Time;durP1;ratioP1;P1;durP2;ratioP2;P2;SDS_P1;SDS_P2;PMS_P1;PMS_P2;Temp;Humidity;BMP_temperature;BMP_pressure;BME280_temperature;BME280_humidity;BME280_pressure;Samples;Min_cycle;Max_cycle;Signal;HPM_P1;HPM_P2
2023/05/31 00:00:11;;;;;;;75.93;72.43;;;;;;;22.38;37.30;102447.47;5032069;28;20477;-73
2023/05/31 00:02:37;;;;;;;76.15;72.55;;;;;;;22.36;37.10;102451.63;5020556;28;20394;-74
2023/05/31 00:05:02;;;;;;;79.63;75.53;;;;;;;22.32;37.17;102459.59;5012164;28;20488;-73
2023/05/31 00:07:28;;;;;;;74.15;70.70;;;;;;;22.31;37.33;102455.22;5014951;28;20038;-73
2023/05/31 00:09:53;;;;;;;76.57;72.97;;;;;;;22.28;37.39;102457.72;5017190;28;20061;-74
2023/05/31 00:12:19;;;;;;;78.80;75.15;;;;;;;22.25;37.29;102450.81;5000286;28;20033;-74
2023/05/31 00:14:45;;;;;;;76.45;72.75;;;;;;;22.21;37.55;102461.56;4999971;28;20049;-74
2023/05/31 00:17:12;;;;;;;75.07;71.57;;;;;;;22.18;37.23;102456.59;5031936;28;20037;-72
2023/05/31 00:19:39;;;;;;;75.00;71.40;;;;;;;22.16;37.24;102453.31;5002961;28;20026;-72
2023/05/31 00:22:05;;;;;;;77.75;74.07;;;;;;;22.12;37.78;102454.94;5001705;28;20479;-73
2023/05/31 00:24:31;;;;;;;75.80;72.22;;;;;;;22.09;37.30;102455.50;5017238;28;20030;-74
2023/05/31 00:26:56;;;;;;;75.97;72.28;;;;;;;22.07;37.93;102443.13;5015554;28;20049;-73
2023/05/31 00:29:21;;;;;;;75.28;71.60;;;;;;;22.03;37.71;102451.97;5011464;28;20042;-75
2023/05/31 00:31:47;;;;;;;74.28;70.88;;;;;;;22.00;37.56;102447.03;5001405;28;20133;-73
2023/05/31 00:34:12;;;;;;;75.55;71.95;;;;;;;21.97;37.66;102442.09;4996322;28;20049;-74
2023/05/31 00:36:38;;;;;;;72.93;69.60;;;;;;;21.95;37.63;102448.97;5014580;28;20389;-75
2023/05/31 00:39:03;;;;;;;75.90;72.20;;;;;;;21.92;37.93;102447.56;5021626;28;20052;-73
2023/05/31 00:41:29;;;;;;;74.35;70.80;;;;;;;21.89;37.74;102442.63;5018933;28;20036;-74
2023/05/31 00:43:55;;;;;;;74.10;70.53;;;;;;;21.86;37.98;102456.13;5012738;28;20106;-74
2023/05/31 00:46:41;;;;;;;71.40;68.07;;;;;;;21.84;37.79;102461.88;5002474;28;20079;-73
2023/05/31 00:49:07;;;;;;;74.70;71.25;;;;;;;21.80;38.13;102453.38;5019990;28;20041;-73
2023/05/31 00:51:33;;;;;;;72.97;69.57;;;;;;;21.76;37.74;102455.03;5010879;28;20393;-74
2023/05/31 00:54:00;;;;;;;74.00;70.50;;;;;;;21.73;37.80;102455.59;4998308;28;20181;-73
2023/05/31 00:56:26;;;;;;;72.72;69.35;;;;;;;21.72;37.88;102461.34;4994597;28;20101;-73
2023/05/31 00:58:53;;;;;;;76.75;73.25;;;;;;;21.69;38.15;102459.16;5001045;28;20058;-76
2023/05/31 01:01:20;;;;;;;71.90;68.57;;;;;;;21.65;38.13;102458.91;5022245;28;20085;-72
2023/05/31 01:03:46;;;;;;;71.28;67.95;;;;;;;21.62;38.12;102464.97;5014105;28;20038;-73
2023/05/31 01:06:11;;;;;;;71.80;68.40;;;;;;;21.59;37.90;102459.97;5012363;28;20625;-74
2023/05/31 01:08:37;;;;;;;72.68;69.28;;;;;;;21.56;38.11;102466.03;5011911;28;20092;-74
2023/05/31 01:11:35;;;;;;;72.35;68.55;;;;;;;21.53;38.17;102470.16;5023862;28;20511;-73
2023/05/31 01:14:09;;;;;;;69.78;66.32;;;;;;;21.48;38.18;102461.91;5037856;28;20068;-75
2023/05/31 01:16:45;;;;;;;70.93;67.50;;;;;;;21.45;38.48;102470.72;5008192;28;20069;-72
2023/05/31 01:19:20;;;;;;;72.93;69.20;;;;;;;21.43;38.45;102467.41;5018212;28;20426;-74
2023/05/31 01:22:19;;;;;;;70.53;67.30;;;;;;;21.41;38.40;102474.28;4999481;28;20030;-74
2023/05/31 01:24:58;;;;;;;68.75;65.55;;;;;;;21.36;38.54;102467.63;5029657;28;20048;-73
2023/05/31 01:27:25;;;;;;;70.30;67.00;;;;;;;21.34;38.41;102466.25;4994798;28;20065;-73
2023/05/31 01:29:52;;;;;;;68.13;64.97;;;;;;;21.31;38.54;102458.56;5004035;28;20627;-75
2023/05/31 01:32:20;;;;;;;70.30;66.95;;;;;;;21.28;38.65;102459.13;4993958;28;20091;-74
2023/05/31 01:34:46;;;;;;;70.03;66.72;;;;;;;21.25;38.50;102454.19;5017758;28;20029;-76
2023/05/31 01:37:11;;;;;;;73.70;70.15;;;;;;;21.23;38.44;102450.88;5006040;28;20040;-74
2023/05/31 01:39:37;;;;;;;71.07;67.68;;;;;;;21.20;38.47;102451.44;4996956;28;20038;-75
2023/05/31 01:42:03;;;;;;;70.47;67.07;;;;;;;21.16;38.45;102448.38;5005856;28;20042;-73
2023/05/31 01:44:31;;;;;;;68.20;65.10;;;;;;;21.13;38.89;102441.50;5013190;28;20073;-73
2023/05/31 01:46:58;;;;;;;68.22;65.00;;;;;;;21.11;38.53;102448.38;5040516;28;20038;-75
2023/05/31 01:49:24;;;;;;;68.82;65.47;;;;;;;21.09;38.64;102453.31;5023610;28;20097;-74
2023/05/31 01:51:50;;;;;;;69.47;66.22;;;;;;;21.06;39.02;102446.44;5021239;28;20040;-75
2023/05/31 01:54:16;;;;;;;69.65;66.35;;;;;;;21.04;38.59;102450.56;5010922;28;20256;-73
2023/05/31 01:56:43;;;;;;;67.38;64.18;;;;;;;20.99;38.80;102445.91;5015171;28;20036;-73
2023/05/31 01:59:09;;;;;;;70.07;66.53;;;;;;;20.97;38.99;102450.84;4995557;28;20129;-73
2023/05/31 02:01:37;;;;;;;67.57;64.35;;;;;;;20.95;39.17;102447.53;5011878;28;20044;-72
2023/05/31 02:04:03;;;;;;;69.50;66.07;;;;;;;20.92;38.76;102442.59;5004445;28;20049;-73
2023/05/31 02:06:28;;;;;;;69.30;65.85;;;;;;;20.90;38.86;102442.03;5018523;28;20029;-74
2023/05/31 02:08:54;;;;;;;67.95;64.53;;;;;;;20.87;38.86;102426.91;5013421;28;20042;-74
2023/05/31 02:11:20;;;;;;;68.80;65.10;;;;;;;20.85;38.95;102431.03;5016225;28;20033;-74
2023/05/31 02:13:45;;;;;;;66.90;63.67;;;;;;;20.82;39.25;102432.41;5023008;28;20390;-74
2023/05/31 02:16:11;;;;;;;66.93;63.70;;;;;;;20.79;38.84;102429.34;5014209;28;20387;-74
2023/05/31 02:18:36;;;;;;;66.07;62.90;;;;;;;20.77;38.93;102432.38;5009749;28;20033;-73
2023/05/31 02:21:02;;;;;;;68.93;65.55;;;;;;;20.73;39.06;102428.50;5011193;28;20080;-73
2023/05/31 02:23:28;;;;;;;67.85;64.45;;;;;;;20.71;39.09;102433.44;5005345;28;20439;-73
2023/05/31 02:25:55;;;;;;;67.93;64.57;;;;;;;20.68;39.49;102431.25;5010795;28;20084;-72
2023/05/31 02:28:20;;;;;;;68.03;64.32;;;;;;;20.65;39.14;102432.63;5009738;28;20041;-72
2023/05/31 02:30:56;;;;;;;67.50;64.20;;;;;;;20.62;39.57;102444.13;5018657;28;20047;-72
2023/05/31 02:33:22;;;;;;;67.13;63.90;;;;;;;20.60;39.46;102442.75;5030340;28;20083;-71
2023/05/31 02:35:48;;;;;;;67.53;63.92;;;;;;;20.57;39.22;102441.38;5020687;28;20029;-73
2023/05/31 02:38:13;;;;;;;66.28;62.78;;;;;;;20.53;39.69;102441.03;5007645;28;20408;-72
2023/05/31 02:40:38;;;;;;;67.50;63.13;;;;;;;20.50;39.62;102438.03;5012274;28;20426;-72
2023/05/31 02:43:04;;;;;;;68.00;64.55;;;;;;;20.49;39.38;102439.13;5021768;28;20045;-72
2023/05/31 02:45:29;;;;;;;65.65;62.53;;;;;;;20.46;39.53;102436.91;5033521;28;20136;-72
2023/05/31 02:47:55;;;;;;;65.28;61.97;;;;;;;20.43;39.34;102438.25;5010760;28;20448;-73
2023/05/31 02:50:21;;;;;;;64.15;61.05;;;;;;;20.42;39.30;102435.81;5001991;28;20257;-72
2023/05/31 02:52:46;;;;;;;65.35;61.97;;;;;;;20.38;39.56;102431.94;4991726;28;20035;-75
2023/05/31 02:55:12;;;;;;;68.03;64.57;;;;;;;20.36;39.51;102436.84;5013637;28;20482;-73
2023/05/31 02:57:37;;;;;;;64.45;61.35;;;;;;;20.33;39.38;102432.72;4994568;28;20050;-72
2023/05/31 03:00:13;;;;;;;61.67;58.58;;;;;;;20.30;39.87;102428.59;5004160;28;20042;-78
2023/05/31 03:02:39;;;;;;;64.40;60.75;;;;;;;20.28;39.68;102435.44;4992162;28;20034;-73
2023/05/31 03:05:06;;;;;;;63.42;60.30;;;;;;;20.25;39.56;102438.72;5015636;28;20050;-73
2023/05/31 03:07:35;;;;;;;62.67;59.58;;;;;;;20.23;39.81;102444.47;5005103;28;20042;-73
2023/05/31 03:10:03;;;;;;;63.90;60.85;;;;;;;20.20;39.78;102436.78;5011069;28;20032;-73
2023/05/31 03:12:29;;;;;;;65.50;62.10;;;;;;;20.18;39.89;102432.66;4997621;28;20168;-72
2023/05/31 03:14:55;;;;;;;63.10;60.00;;;;;;;20.16;39.68;102443.91;5012089;28;20121;-74
2023/05/31 03:17:20;;;;;;;62.92;59.72;;;;;;;20.14;40.17;102445.28;5009788;28;20029;-73
2023/05/31 03:19:46;;;;;;;63.13;60.00;;;;;;;20.12;39.82;102441.97;5010614;28;20104;-73
2023/05/31 03:22:11;;;;;;;66.10;62.92;;;;;;;20.07;40.10;102438.09;4992093;28;20058;-73
2023/05/31 03:24:37;;;;;;;64.93;61.65;;;;;;;20.06;39.80;102432.88;4986409;28;20488;-73
2023/05/31 03:27:02;;;;;;;61.63;58.63;;;;;;;20.04;39.66;102435.06;5012430;28;20131;-74
2023/05/31 03:29:28;;;;;;;63.97;60.63;;;;;;;20.01;39.93;102430.13;4997959;28;20030;-73
2023/05/31 03:31:53;;;;;;;62.88;59.60;;;;;;;19.99;40.03;102440.50;5012924;28;20074;-73
2023/05/31 03:34:21;;;;;;;63.53;60.13;;;;;;;19.96;39.90;102428.16;4959957;28;20038;-73
2023/05/31 03:36:46;;;;;;;62.28;59.10;;;;;;;19.94;40.11;102424.03;5016712;28;20041;-73
2023/05/31 03:39:12;;;;;;;64.43;60.83;;;;;;;19.91;40.04;102422.63;4990464;28;20034;-72
2023/05/31 03:41:37;;;;;;;62.17;59.08;;;;;;;19.90;39.94;102423.72;5000966;28;20038;-72
2023/05/31 03:44:03;;;;;;;60.10;57.00;;;;;;;19.86;39.98;102431.66;4991701;28;20041;-73
2023/05/31 03:46:28;;;;;;;63.53;60.13;;;;;;;19.84;39.96;102433.84;5011449;28;20036;-74
2023/05/31 03:48:53;;;;;;;60.80;57.80;;;;;;;19.83;40.29;102434.09;5016805;28;20129;-73
2023/05/31 03:51:19;;;;;;;62.97;59.63;;;;;;;19.80;40.11;102426.38;5026755;28;20080;-73
2023/05/31 03:53:44;;;;;;;62.70;59.25;;;;;;;19.77;40.26;102425.00;5011427;28;20057;-73
2023/05/31 03:56:10;;;;;;;62.58;59.13;;;;;;;19.75;40.07;102434.59;5016924;28;20045;-73
2023/05/31 03:58:35;;;;;;;60.42;57.38;;;;;;;19.73;40.15;102434.88;5003018;28;20042;-74
2023/05/31 04:01:02;;;;;;;61.05;58.03;;;;;;;19.71;40.46;102439.78;5010524;28;20069;-72
2023/05/31 04:03:28;;;;;;;61.47;58.35;;;;;;;19.69;40.40;102427.41;5010009;28;20434;-72
2023/05/31 04:05:53;;;;;;;63.38;60.17;;;;;;;19.66;40.17;102434.22;5024486;28;20038;-73
2023/05/31 04:08:18;;;;;;;62.03;58.83;;;;;;;19.64;40.39;102431.72;5004647;28;20030;-73
2023/05/31 04:10:44;;;;;;;59.92;56.90;;;;;;;19.62;40.25;102436.66;5002398;28;20029;-72
2023/05/31 04:13:09;;;;;;;61.13;58.03;;;;;;;19.59;40.23;102434.44;5015642;28;20125;-72
2023/05/31 04:15:35;;;;;;;59.80;56.67;;;;;;;19.57;40.08;102425.66;5000022;28;20022;-73
2023/05/31 04:18:01;;;;;;;60.92;57.72;;;;;;;19.55;40.09;102433.31;5007093;28;20125;-73
2023/05/31 04:20:27;;;;;;;61.08;57.97;;;;;;;19.53;40.28;102430.03;5009919;28;20054;-72
2023/05/31 04:22:53;;;;;;;60.95;57.65;;;;;;;19.51;40.66;102434.09;4995512;28;20088;-74
2023/05/31 04:25:22;;;;;;;60.55;57.03;;;;;;;19.49;40.54;102433.53;4999386;28;20036;-73
2023/05/31 04:27:49;;;;;;;60.47;57.10;;;;;;;19.46;40.38;102437.63;4995254;28;20509;-73
2023/05/31 04:30:15;;;;;;;59.85;56.75;;;;;;;19.44;40.56;102440.63;5008639;28;20049;-74
2023/05/31 04:32:40;;;;;;;60.15;57.08;;;;;;;19.43;40.31;102438.16;4978221;28;20031;-73
2023/05/31 04:35:08;;;;;;;59.90;56.80;;;;;;;19.40;40.50;102439.50;5009610;28;20029;-73
2023/05/31 04:37:33;;;;;;;59.42;56.35;;;;;;;19.38;40.72;102447.16;5025001;28;20044;-73
2023/05/31 04:40:00;;;;;;;58.63;55.53;;;;;;;19.36;40.94;102445.75;5010049;28;20042;-73
2023/05/31 04:42:26;;;;;;;58.88;55.78;;;;;;;19.34;40.79;102439.72;5001052;28;20045;-73
2023/05/31 04:45:00;;;;;;;59.47;56.33;;;;;;;19.32;40.92;102431.75;5002897;28;20477;-73
2023/05/31 04:47:29;;;;;;;58.78;55.78;;;;;;;19.30;40.94;102435.81;5002223;28;20046;-74
2023/05/31 04:49:56;;;;;;;59.10;55.95;;;;;;;19.28;40.91;102438.00;4984993;28;20041;-73
2023/05/31 04:52:28;;;;;;;60.75;57.35;;;;;;;19.26;41.04;102434.72;5023332;28;20034;-73
2023/05/31 04:54:58;;;;;;;58.17;55.10;;;;;;;19.25;40.76;102442.09;5004318;28;20347;-74
2023/05/31 04:57:24;;;;;;;61.08;57.97;;;;;;;19.22;40.86;102440.69;5016695;28;20416;-73
2023/05/31 04:59:50;;;;;;;58.75;55.70;;;;;;;19.20;40.91;102425.59;5022815;28;20470;-74
2023/05/31 05:02:18;;;;;;;58.45;55.15;;;;;;;19.19;40.93;102424.78;5014104;28;20120;-73
2023/05/31 05:04:43;;;;;;;60.78;57.35;;;;;;;19.17;40.79;102426.13;5002607;28;20486;-73
2023/05/31 05:07:09;;;;;;;58.50;55.50;;;;;;;19.16;40.94;102433.53;4993409;28;20034;-74
2023/05/31 05:09:35;;;;;;;57.88;54.78;;;;;;;19.15;40.76;102431.03;4979678;28;20132;-73
2023/05/31 05:12:02;;;;;;;59.85;56.67;;;;;;;19.13;41.18;102434.06;5019418;28;20038;-74
2023/05/31 05:14:28;;;;;;;59.60;56.30;;;;;;;19.12;41.19;102439.78;5026570;28;20123;-72
2023/05/31 05:16:54;;;;;;;59.80;56.70;;;;;;;19.11;41.10;102449.91;5005237;28;20534;-77
2023/05/31 05:19:20;;;;;;;61.85;58.13;;;;;;;19.10;40.99;102442.78;4997740;28;20054;-74
2023/05/31 05:21:45;;;;;;;58.03;54.65;;;;;;;19.09;41.26;102443.84;5005153;28;20401;-74
2023/05/31 05:24:11;;;;;;;58.65;55.25;;;;;;;19.09;41.31;102434.81;5039790;28;20133;-74
2023/05/31 05:26:36;;;;;;;55.92;52.85;;;;;;;19.09;41.17;102452.06;5014144;28;20030;-74
2023/05/31 05:29:03;;;;;;;59.17;55.97;;;;;;;19.09;41.12;102448.50;5024050;28;20045;-75
2023/05/31 05:31:28;;;;;;;58.20;54.97;;;;;;;19.08;41.05;102455.09;5018850;28;20115;-74
2023/05/31 05:33:54;;;;;;;59.33;56.20;;;;;;;19.08;41.21;102446.88;5032169;28;20041;-75
2023/05/31 05:36:19;;;;;;;57.60;53.67;;;;;;;19.08;41.28;102444.13;5017081;28;20413;-73
2023/05/31 05:38:45;;;;;;;59.72;56.30;;;;;;;19.09;41.56;102448.50;5012766;28;20084;-73
2023/05/31 05:41:12;;;;;;;56.53;53.47;;;;;;;19.08;41.52;102446.88;5009920;28;20113;-74
2023/05/31 05:43:41;;;;;;;57.17;54.00;;;;;;;19.09;41.63;102448.50;5010475;28;20042;-75
2023/05/31 05:46:06;;;;;;;56.13;53.17;;;;;;;19.10;41.66;102445.53;5020257;28;20089;-76
2023/05/31 05:48:32;;;;;;;57.80;54.40;;;;;;;19.10;41.97;102450.16;5022074;28;20526;-74
2023/05/31 05:50:58;;;;;;;56.20;52.75;;;;;;;19.09;41.72;102448.50;5014947;28;20045;-74
2023/05/31 05:53:23;;;;;;;57.50;54.40;;;;;;;19.09;41.43;102446.59;5028970;28;20471;-72
2023/05/31 05:55:51;;;;;;;59.00;55.50;;;;;;;19.09;41.87;102437.56;5012650;28;20533;-72
2023/05/31 05:58:16;;;;;;;58.65;55.25;;;;;;;19.10;41.58;102447.41;5005417;28;20034;-72
2023/05/31 06:00:44;;;;;;;57.33;54.03;;;;;;;19.10;41.83;102456.47;5001872;28;20057;-73
2023/05/31 06:03:10;;;;;;;59.08;55.67;;;;;;;19.12;41.95;102450.72;5010773;28;20033;-72
2023/05/31 06:05:36;;;;;;;57.53;54.38;;;;;;;19.14;41.94;102454.88;5018470;28;20033;-72
2023/05/31 06:08:02;;;;;;;57.67;54.42;;;;;;;19.14;42.15;102452.13;4998094;28;20394;-72
2023/05/31 06:10:27;;;;;;;58.50;55.28;;;;;;;19.15;41.48;102450.19;5005128;28;20108;-73
2023/05/31 06:12:53;;;;;;;56.30;53.22;;;;;;;19.18;41.74;102457.94;5010274;28;20134;-74
2023/05/31 06:15:19;;;;;;;58.63;55.28;;;;;;;19.18;41.71;102457.94;5005589;28;20046;-80
2023/05/31 06:17:44;;;;;;;58.78;55.05;;;;;;;19.18;41.93;102457.94;5007218;28;20056;-72
2023/05/31 06:20:10;;;;;;;60.13;56.63;;;;;;;19.19;41.92;102454.09;5018984;28;20108;-72
2023/05/31 06:22:36;;;;;;;60.47;56.33;;;;;;;19.20;42.29;102451.09;5018247;28;20068;-74
2023/05/31 06:25:02;;;;;;;55.75;52.75;;;;;;;19.23;41.90;102452.50;5006555;28;20065;-76
2023/05/31 06:27:28;;;;;;;59.17;55.78;;;;;;;19.22;42.11;102451.66;5011133;28;20475;-75
2023/05/31 06:29:57;;;;;;;58.75;55.45;;;;;;;19.23;41.80;102452.50;5012041;28;20052;-74
2023/05/31 06:32:25;;;;;;;62.85;59.25;;;;;;;19.25;42.35;102458.53;4989686;28;20121;-73
2023/05/31 06:34:51;;;;;;;57.90;54.00;;;;;;;19.26;42.16;102465.66;4992110;28;20066;-74
2023/05/31 06:37:17;;;;;;;59.10;55.30;;;;;;;19.27;42.20;102464.56;5004300;28;20057;-75
2023/05/31 06:39:43;;;;;;;61.10;57.15;;;;;;;19.29;42.42;102462.41;4978500;28;20523;-74
2023/05/31 06:42:09;;;;;;;60.58;56.63;;;;;;;19.31;42.22;102462.97;5005052;28;20433;-73
2023/05/31 06:44:34;;;;;;;59.95;56.60;;;;;;;19.35;42.15;102461.38;5006227;28;20145;-74
2023/05/31 06:47:00;;;;;;;60.33;56.83;;;;;;;19.39;42.05;102462.50;5010527;28;20116;-73
2023/05/31 06:49:27;;;;;;;61.85;58.22;;;;;;;19.41;42.62;102465.81;5013739;28;20033;-74
2023/05/31 06:51:52;;;;;;;58.47;55.13;;;;;;;19.43;42.81;102463.66;5006120;28;20065;-76
2023/05/31 06:54:18;;;;;;;59.80;56.45;;;;;;;19.46;43.00;102468.59;5007521;28;20062;-75
2023/05/31 06:56:43;;;;;;;61.13;57.33;;;;;;;19.51;42.68;102464.25;4997559;28;20111;-74
2023/05/31 06:59:09;;;;;;;61.83;58.20;;;;;;;19.55;42.85;102473.59;5008392;28;20466;-83
2023/05/31 07:01:34;;;;;;;59.70;56.40;;;;;;;19.56;42.52;102461.56;5004507;28;20499;-73
2023/05/31 07:04:00;;;;;;;61.60;57.90;;;;;;;19.58;43.04;102459.34;5005345;28;20038;-72
2023/05/31 07:06:25;;;;;;;63.85;59.92;;;;;;;19.60;42.55;102462.66;4998528;28;20030;-71
2023/05/31 07:08:51;;;;;;;58.72;55.30;;;;;;;19.63;42.68;102462.13;5011476;28;20439;-72
2023/05/31 07:11:17;;;;;;;58.70;55.55;;;;;;;19.67;42.72;102460.56;5005928;28;20067;-72
2023/05/31 07:13:42;;;;;;;58.63;55.45;;;;;;;19.70;43.05;102449.06;5004705;28;20753;-73
2023/05/31 07:16:08;;;;;;;102.60;60.17;;;;;;;19.74;42.82;102449.41;5002212;28;20084;-72
2023/05/31 07:18:33;;;;;;;65.97;59.33;;;;;;;19.78;43.11;102443.13;5008830;28;20538;-74
2023/05/31 07:20:59;;;;;;;60.47;56.72;;;;;;;19.82;43.28;102444.22;4999979;28;20045;-72
2023/05/31 07:23:26;;;;;;;61.83;57.70;;;;;;;19.89;42.85;102435.78;5005397;28;20065;-74
2023/05/31 07:25:51;;;;;;;59.90;56.30;;;;;;;19.94;43.04;102446.78;5009226;28;20137;-72
2023/05/31 07:28:16;;;;;;;62.20;58.03;;;;;;;19.97;43.20;102440.75;5007717;28;20136;-72
2023/05/31 07:30:42;;;;;;;63.80;59.95;;;;;;;20.01;43.44;102443.81;4998510;28;20030;-72
2023/05/31 07:33:07;;;;;;;66.40;61.90;;;;;;;20.05;43.31;102439.44;5006381;28;20470;-74
2023/05/31 07:35:33;;;;;;;66.18;61.92;;;;;;;20.11;43.87;102438.41;4986542;28;20108;-72
2023/05/31 07:37:58;;;;;;;61.70;57.90;;;;;;;20.15;44.00;102442.25;5010409;28;20042;-72
2023/05/31 07:40:23;;;;;;;65.13;61.10;;;;;;;20.20;44.10;102441.44;5007782;28;20100;-72
2023/05/31 07:42:49;;;;;;;62.92;59.13;;;;;;;20.23;44.31;102441.72;4997984;28;20035;-74
2023/05/31 07:45:14;;;;;;;63.13;59.60;;;;;;;20.25;44.20;102444.22;4990858;28;20062;-71
2023/05/31 07:47:40;;;;;;;64.80;60.75;;;;;;;20.31;44.09;102440.44;4997824;28;20469;-72
2023/05/31 07:50:06;;;;;;;67.07;62.67;;;;;;;20.35;43.98;102438.78;5005004;28;20461;-71
2023/05/31 07:52:31;;;;;;;66.47;62.65;;;;;;;20.42;44.35;102441.28;5010241;28;20029;-72
2023/05/31 07:54:57;;;;;;;68.43;64.65;;;;;;;20.47;44.15;102436.63;4997103;28;20773;-73
2023/05/31 07:57:23;;;;;;;67.70;63.97;;;;;;;20.53;44.20;102432.81;5007855;28;20478;-72
2023/05/31 07:59:50;;;;;;;69.45;65.47;;;;;;;20.58;44.34;102432.03;4999577;28;20042;-72
2023/05/31 08:02:16;;;;;;;67.18;63.47;;;;;;;20.65;43.52;102429.88;5000779;28;20446;-72
2023/05/31 08:04:41;;;;;;;66.80;62.50;;;;;;;20.72;44.13;102429.63;5000810;28;20052;-73
2023/05/31 08:07:07;;;;;;;65.70;61.70;;;;;;;20.79;44.29;102421.97;4993955;28;20036;-73
2023/05/31 08:09:32;;;;;;;69.90;65.78;;;;;;;20.89;44.22;102423.88;5003263;28;20039;-71
2023/05/31 08:11:57;;;;;;;69.15;65.20;;;;;;;20.95;44.00;102422.81;5005266;28;20108;-72
2023/05/31 08:14:23;;;;;;;72.47;68.18;;;;;;;21.04;44.22;102426.69;5009044;28;20033;-73
2023/05/31 08:16:49;;;;;;;69.82;65.72;;;;;;;21.11;43.79;102421.72;5005825;28;20062;-74
2023/05/31 08:19:14;;;;;;;71.03;67.20;;;;;;;21.20;44.09;102423.94;4997143;28;20121;-72
2023/05/31 08:21:40;;;;;;;71.80;67.60;;;;;;;21.28;43.67;102420.66;5008033;28;20042;-73
2023/05/31 08:24:06;;;;;;;70.25;66.28;;;;;;;21.36;43.99;102425.59;5001252;28;20079;-72
2023/05/31 08:26:32;;;;;;;71.55;67.95;;;;;;;21.43;43.74;102419.84;4990943;28;20095;-75
2023/05/31 08:28:59;;;;;;;72.35;68.15;;;;;;;21.49;44.16;102416.00;5010067;28;20046;-74
2023/05/31 08:31:24;;;;;;;71.40;67.45;;;;;;;21.58;44.02;102412.41;5005162;28;20096;-72
2023/05/31 08:33:57;;;;;;;70.50;66.93;;;;;;;21.68;43.58;102405.25;4998571;28;20054;-73
2023/05/31 08:36:23;;;;;;;74.53;70.07;;;;;;;21.76;43.69;102416.50;5004710;28;20041;-73
2023/05/31 08:38:49;;;;;;;76.00;71.93;;;;;;;21.84;43.41;102412.38;4978625;28;20030;-71
2023/05/31 08:41:15;;;;;;;76.75;72.35;;;;;;;21.93;43.48;102407.97;5008662;28;20532;-73
2023/05/31 08:43:41;;;;;;;75.25;71.05;;;;;;;22.03;43.53;102412.63;5004877;28;20049;-73
2023/05/31 08:46:07;;;;;;;76.57;72.53;;;;;;;22.12;43.88;102404.59;5005363;28;20045;-72
2023/05/31 08:49:08;;;;;;;75.90;71.80;;;;;;;22.24;43.36;102414.22;5007612;28;20058;-73
2023/05/31 08:51:36;;;;;;;76.90;72.50;;;;;;;22.33;43.48;102411.72;4992807;28;20455;-73
2023/05/31 08:54:02;;;;;;;76.15;72.20;;;;;;;22.40;43.14;102403.97;5007639;28;20049;-73
2023/05/31 08:56:28;;;;;;;78.63;74.00;;;;;;;22.51;42.80;102410.25;5000267;28;20030;-74
2023/05/31 08:58:54;;;;;;;79.20;74.82;;;;;;;22.61;42.49;102401.13;5004427;28;20042;-73
2023/05/31 09:01:22;;;;;;;81.85;76.72;;;;;;;22.71;42.73;102406.56;5001551;28;20045;-72
2023/05/31 09:03:47;;;;;;;83.85;79.15;;;;;;;22.79;42.82;102400.44;5007159;28;20088;-73
2023/05/31 09:06:13;;;;;;;80.82;76.25;;;;;;;22.89;42.68;102399.56;5008122;28;20033;-72
2023/05/31 09:08:38;;;;;;;82.05;77.72;;;;;;;22.99;42.47;102399.53;4998481;28;20052;-72
2023/05/31 09:11:05;;;;;;;81.43;76.72;;;;;;;23.08;42.70;102394.22;4994707;28;20113;-72
2023/05/31 09:13:31;;;;;;;82.03;77.53;;;;;;;23.18;42.27;102396.88;4992570;28;20030;-73
2023/05/31 09:15:58;;;;;;;82.35;78.22;;;;;;;23.28;41.92;102405.09;5001237;28;20058;-72
2023/05/31 09:18:25;;;;;;;82.88;78.57;;;;;;;23.39;42.16;102400.31;5007274;28;20103;-73
2023/05/31 09:20:53;;;;;;;83.37;78.87;;;;;;;23.49;42.25;102396.63;5004378;28;20026;-74
2023/05/31 09:23:19;;;;;;;88.13;83.37;;;;;;;23.60;41.90;102389.91;5007418;28;20112;-72
2023/05/31 09:25:49;;;;;;;87.82;82.72;;;;;;;23.69;42.39;102381.84;5004889;28;20495;-74
2023/05/31 09:28:18;;;;;;;87.53;82.97;;;;;;;23.78;41.98;102388.38;4998904;28;20064;-73
2023/05/31 09:30:43;;;;;;;86.80;81.88;;;;;;;23.88;41.88;102390.19;5005010;28;20041;-74
2023/05/31 09:33:09;;;;;;;86.55;82.18;;;;;;;23.98;41.99;102385.38;5003596;28;20050;-74
2023/05/31 09:35:34;;;;;;;89.05;84.28;;;;;;;24.09;41.57;102380.56;5023630;28;20046;-76
2023/05/31 09:38:05;;;;;;;89.88;85.15;;;;;;;24.20;40.82;102370.22;5013642;28;20037;-71
2023/05/31 09:40:32;;;;;;;90.43;85.75;;;;;;;24.29;40.66;102373.97;5005966;28;20127;-71
2023/05/31 09:42:58;;;;;;;90.88;85.82;;;;;;;24.40;41.34;102369.94;4996326;28;20030;-75
2023/05/31 09:45:24;;;;;;;90.45;85.82;;;;;;;24.51;41.18;102367.88;4988221;28;20037;-77
2023/05/31 09:47:50;;;;;;;93.15;88.53;;;;;;;24.61;40.95;102367.75;5010714;28;20494;-74
2023/05/31 09:50:20;;;;;;;95.25;90.55;;;;;;;24.71;40.78;102361.25;5010782;28;20044;-72
2023/05/31 09:52:47;;;;;;;95.65;90.97;;;;;;;24.82;41.04;102361.91;4998479;28;20137;-74
2023/05/31 09:55:15;;;;;;;93.25;88.63;;;;;;;24.91;41.55;102357.34;5007918;28;20088;-74
2023/05/31 09:57:43;;;;;;;95.57;90.30;;;;;;;25.01;40.98;102353.59;5009771;28;20074;-76
2023/05/31 10:00:17;;;;;;;96.40;91.50;;;;;;;25.12;40.99;102366.13;5003599;28;20477;-75
2023/05/31 10:02:54;;;;;;;98.70;93.85;;;;;;;25.23;40.60;102352.97;5005595;28;20037;-76
2023/05/31 10:05:20;;;;;;;97.60;92.65;;;;;;;25.34;40.74;102350.84;5003677;28;20093;-73
2023/05/31 10:07:48;;;;;;;99.07;94.10;;;;;;;25.45;39.62;102355.91;5007330;28;20048;-74
2023/05/31 10:10:14;;;;;;;99.05;93.80;;;;;;;25.56;39.02;102352.94;5005717;28;20030;-74
2023/05/31 10:13:01;;;;;;;99.50;94.53;;;;;;;25.66;39.23;102356.34;4997828;28;20516;-77
2023/05/31 10:15:27;;;;;;;101.13;95.93;;;;;;;25.76;39.66;102351.72;5003129;28;20033;-73
2023/05/31 10:18:02;;;;;;;103.57;98.63;;;;;;;25.86;40.13;102355.13;5007418;28;20042;-75
2023/05/31 10:20:44;;;;;;;103.20;98.03;;;;;;;25.97;39.52;102344.66;5008283;28;20044;-75
2023/05/31 10:23:16;;;;;;;104.65;99.85;;;;;;;26.07;38.32;102338.91;5001794;28;20199;-75
2023/05/31 10:25:56;;;;;;;100.82;95.45;;;;;;;26.17;38.75;102340.66;5006245;28;20038;-73
2023/05/31 10:28:27;;;;;;;101.63;96.75;;;;;;;26.28;37.53;102335.69;5008387;28;20141;-76
2023/05/31 10:30:54;;;;;;;108.32;102.82;;;;;;;26.38;36.87;102323.56;5008112;28;20030;-74
2023/05/31 10:33:21;;;;;;;102.30;97.38;;;;;;;26.46;37.36;102331.97;5011485;28;20053;-73
2023/05/31 10:35:46;;;;;;;105.47;100.28;;;;;;;26.57;37.83;102329.00;5008681;28;20169;-74
2023/05/31 10:38:14;;;;;;;105.50;100.47;;;;;;;26.65;38.64;102315.19;5006926;28;20129;-73
2023/05/31 10:40:47;;;;;;;108.32;102.95;;;;;;;26.75;37.79;102309.41;5002974;28;20500;-76
2023/05/31 10:43:29;;;;;;;106.95;101.88;;;;;;;26.86;37.57;102320.25;5025474;28;20351;-74
2023/05/31 10:46:01;;;;;;;108.88;103.65;;;;;;;26.95;37.70;102316.38;5004427;28;20033;-75
2023/05/31 10:48:55;;;;;;;111.03;105.80;;;;;;;27.05;36.93;102314.50;5004123;28;20440;-73
2023/05/31 10:51:37;;;;;;;108.30;103.10;;;;;;;27.14;36.21;102310.66;4997842;28;20116;-74
2023/05/31 10:54:03;;;;;;;113.47;107.82;;;;;;;27.22;35.61;102313.81;5009578;28;20033;-75
2023/05/31 10:56:28;;;;;;;113.07;107.97;;;;;;;27.30;34.39;102308.31;4966607;28;20046;-75
2023/05/31 10:58:54;;;;;;;111.75;106.55;;;;;;;27.38;34.92;102301.16;4979172;28;20793;-74
2023/05/31 11:01:21;;;;;;;112.05;107.10;;;;;;;27.47;34.54;102303.97;5008883;28;20046;-74
2023/05/31 11:03:51;;;;;;;111.68;106.63;;;;;;;27.56;33.09;102290.94;4994216;28;20049;-74
2023/05/31 11:06:23;;;;;;;109.40;104.63;;;;;;;27.63;33.81;102296.84;5007464;28;20061;-77
2023/05/31 11:09:12;;;;;;;112.80;107.45;;;;;;;27.73;33.69;102290.19;5002068;28;20038;-75